Time,TemperatureF,DewpointF,PressureIn,WindDirection,WindDirectionDegrees,WindSpeedMPH,WindSpeedGustMPH,Humidity,HourlyPrecipIn,Conditions,Clouds,dailyrainin,SolarRadiationWatts/m^2,SoftwareType,DateUTC
2013-09-03 00:00:00,56.0,54.0,-100.00,ENE,67,0.0,-999.0,92,-99.99,,,-99.99,0.000000,,2013-09-03 04:00:00,
2013-09-03 00:44:00,56.0,54.0,-100.00,ENE,67,0.0,-999.0,92,-99.99,,,-99.99,0.000000,,2013-09-03 04:44:00,
2013-09-03 00:53:00,56.0,54.0,-100.00,ENE,67,0.0,-999.0,92,-99.99,,,-99.99,0.000000,,2013-09-03 04:53:00,
2013-09-03 02:00:00,55.0,55.0,-100.00,South,180,0.0,-999.0,97,-99.99,,,-99.99,0.000000,,2013-09-03 06:00:00,
2013-09-03 02:43:00,55.0,55.0,-100.00,South,180,0.0,-999.0,97,-99.99,,,-99.99,0.000000,,2013-09-03 06:43:00,
2013-09-03 02:52:00,55.0,55.0,-100.00,South,180,0.0,-999.0,97,-99.99,,,-99.99,0.000000,,2013-09-03 06:52:00,
2013-09-03 04:00:00,54.0,54.0,-100.00,NNW,337,0.0,-999.0,100,-99.99,,,-99.99,0.000000,,2013-09-03 08:00:00,
2013-09-03 04:42:00,54.0,54.0,-100.00,NNW,337,0.0,-999.0,100,-99.99,,,-99.99,0.000000,,2013-09-03 08:42:00,
2013-09-03 04:52:00,54.0,54.0,-100.00,NNW,337,0.0,-999.0,100,-99.99,,,-99.99,0.000000,,2013-09-03 08:52:00,
2013-09-03 05:00:00,53.0,53.0,-100.00,WSW,247,0.0,-999.0,101,-99.99,,,-99.99,0.000000,,2013-09-03 09:00:00,
2013-09-03 05:43:00,53.0,53.0,-100.00,WSW,247,0.0,-999.0,101,-99.99,,,-99.99,0.000000,,2013-09-03 09:43:00,
2013-09-03 05:53:00,53.0,53.0,-100.00,WSW,247,0.0,-999.0,101,-99.99,,,-99.99,0.000000,,2013-09-03 09:53:00,
2013-09-03 06:00:00,55.0,55.0,-100.00,WSW,247,0.0,-999.0,102,-99.99,,,-99.99,0.000000,,2013-09-03 10:00:00,
2013-09-03 06:42:00,55.0,55.0,-100.00,WSW,247,0.0,-999.0,102,-99.99,,,-99.99,0.000000,,2013-09-03 10:42:00,
2013-09-03 06:53:00,55.0,55.0,-100.00,WSW,247,0.0,-999.0,102,-99.99,,,-99.99,0.000000,,2013-09-03 10:53:00,
2013-09-03 07:00:00,56.0,56.0,-100.00,SW,225,0.0,-999.0,101,-99.99,,,-99.99,0.000000,,2013-09-03 11:00:00,
2013-09-03 07:43:00,56.0,56.0,-100.00,SW,225,0.0,-999.0,101,-99.99,,,-99.99,0.000000,,2013-09-03 11:43:00,
2013-09-03 07:52:00,56.0,56.0,-100.00,SW,225,0.0,-999.0,101,-99.99,,,-99.99,0.000000,,2013-09-03 11:52:00,
2013-09-03 08:00:00,57.0,56.0,-100.00,NE,45,0.0,-999.0,96,-99.99,,,-99.99,13.920000,,2013-09-03 12:00:00,
2013-09-03 08:42:00,57.0,56.0,-100.00,NE,45,0.0,-999.0,96,-99.99,,,-99.99,13.920000,,2013-09-03 12:42:00,
2013-09-03 08:52:00,57.0,56.0,-100.00,NE,45,0.0,-999.0,96,-99.99,,,-99.99,13.920000,,2013-09-03 12:52:00,
2013-09-03 09:00:00,62.0,54.0,-100.00,East,90,2.0,-999.0,74,-99.99,,,-99.99,206.479996,,2013-09-03 13:00:00,
2013-09-03 09:42:00,62.0,54.0,-100.00,East,90,2.0,-999.0,74,-99.99,,,-99.99,206.479996,,2013-09-03 13:42:00,
2013-09-03 09:52:00,62.0,54.0,-100.00,East,90,2.0,-999.0,74,-99.99,,,-99.99,206.479996,,2013-09-03 13:52:00,
2013-09-03 11:00:00,68.0,54.0,-100.00,East,90,4.0,-999.0,61,-99.99,,,-99.99,537.080017,,2013-09-03 15:00:00,
2013-09-03 11:43:00,68.0,54.0,-100.00,East,90,4.0,-999.0,61,-99.99,,,-99.99,537.080017,,2013-09-03 15:43:00,
2013-09-03 11:54:00,68.0,54.0,-100.00,East,90,4.0,-999.0,61,-99.99,,,-99.99,537.080017,,2013-09-03 15:54:00,
2013-09-03 12:00:00,70.0,55.0,-100.00,WSW,247,5.0,-999.0,58,-99.99,,,-99.99,675.119995,,2013-09-03 16:00:00,
2013-09-03 12:43:00,70.0,55.0,-100.00,WSW,247,5.0,-999.0,58,-99.99,,,-99.99,675.119995,,2013-09-03 16:43:00,
2013-09-03 12:54:00,70.0,55.0,-100.00,WSW,247,5.0,-999.0,58,-99.99,,,-99.99,675.119995,,2013-09-03 16:54:00,
2013-09-03 14:00:00,71.0,56.0,-100.00,NW,315,8.0,-999.0,59,-99.99,,,-99.99,676.280029,,2013-09-03 18:00:00,
2013-09-03 14:43:00,71.0,56.0,-100.00,NW,315,8.0,-999.0,59,-99.99,,,-99.99,676.280029,,2013-09-03 18:43:00,
2013-09-03 14:52:00,71.0,56.0,-100.00,NW,315,8.0,-999.0,59,-99.99,,,-99.99,676.280029,,2013-09-03 18:52:00,
2013-09-03 16:00:00,70.0,57.0,-100.00,NW,315,7.0,-999.0,63,-99.99,,,-99.99,439.640015,,2013-09-03 20:00:00,
2013-09-03 16:42:00,70.0,57.0,-100.00,NW,315,7.0,-999.0,63,-99.99,,,-99.99,439.640015,,2013-09-03 20:42:00,
2013-09-03 16:53:00,70.0,57.0,-100.00,NW,315,7.0,-999.0,63,-99.99,,,-99.99,439.640015,,2013-09-03 20:53:00,
2013-09-03 17:00:00,70.0,57.0,-100.00,WNW,292,7.0,-999.0,63,-99.99,,,-99.99,526.640015,,2013-09-03 21:00:00,
2013-09-03 17:44:00,70.0,57.0,-100.00,WNW,292,7.0,-999.0,63,-99.99,,,-99.99,526.640015,,2013-09-03 21:44:00,
2013-09-03 17:54:00,70.0,57.0,-100.00,WNW,292,7.0,-999.0,63,-99.99,,,-99.99,526.640015,,2013-09-03 21:54:00,
2013-09-03 18:00:00,72.0,58.0,-100.00,NW,315,6.0,-999.0,62,-99.99,,,-99.99,452.399994,,2013-09-03 22:00:00,
2013-09-03 18:43:00,72.0,58.0,-100.00,NW,315,6.0,-999.0,62,-99.99,,,-99.99,452.399994,,2013-09-03 22:43:00,
2013-09-03 18:53:00,72.0,58.0,-100.00,NW,315,6.0,-999.0,62,-99.99,,,-99.99,452.399994,,2013-09-03 22:53:00,
2013-09-03 19:00:00,70.0,58.0,-100.00,NW,315,5.0,-999.0,65,-99.99,,,-99.99,236.639999,,2013-09-03 23:00:00,
2013-09-03 19:42:00,70.0,58.0,-100.00,NW,315,5.0,-999.0,65,-99.99,,,-99.99,236.639999,,2013-09-03 23:42:00,
2013-09-03 19:54:00,70.0,58.0,-100.00,NW,315,5.0,-999.0,65,-99.99,,,-99.99,236.639999,,2013-09-03 23:54:00,
2013-09-03 20:00:00,68.0,58.0,-100.00,NW,315,2.0,-999.0,70,-99.99,,,-99.99,66.120003,,2013-09-04 00:00:00,
2013-09-03 20:42:00,68.0,58.0,-100.00,NW,315,2.0,-999.0,70,-99.99,,,-99.99,66.120003,,2013-09-04 00:42:00,
2013-09-03 20:52:00,68.0,58.0,-100.00,NW,315,2.0,-999.0,70,-99.99,,,-99.99,66.120003,,2013-09-04 00:52:00,
2013-09-03 22:00:00,55.0,54.0,-100.00,SSE,157,0.0,-999.0,99,-99.99,,,-99.99,0.000000,,2013-09-04 02:00:00,
2013-09-03 22:43:00,55.0,54.0,-100.00,SSE,157,0.0,-999.0,99,-99.99,,,-99.99,0.000000,,2013-09-04 02:43:00,
2013-09-03 22:52:00,55.0,54.0,-100.00,SSE,157,0.0,-999.0,99,-99.99,,,-99.99,0.000000,,2013-09-04 02:52:00,
2013-09-03 23:00:00,52.0,52.0,-100.00,WNW,292,0.0,-999.0,100,-99.99,,,-99.99,0.000000,,2013-09-04 03:00:00,
2013-09-03 23:44:00,52.0,52.0,-100.00,WNW,292,0.0,-999.0,100,-99.99,,,-99.99,0.000000,,2013-09-04 03:44:00,
2013-09-03 23:54:00,52.0,52.0,-100.00,WNW,292,0.0,-999.0,100,-99.99,,,-99.99,0.000000,,2013-09-04 03:54:00,